createdAt,value
2023-02-11T00:01:30.508Z,48.80
2023-02-11T00:04:32.937Z,52.13
2023-02-11T00:07:35.368Z,51.20
2023-02-11T00:10:37.833Z,51.33
2023-02-11T00:13:40.170Z,55.53
2023-02-11T00:16:42.751Z,53.97
2023-02-11T00:19:44.976Z,52.83
2023-02-11T00:22:47.431Z,59.08
2023-02-11T00:25:49.748Z,51.10
2023-02-11T00:28:53.428Z,53.33
2023-02-11T00:31:55.736Z,49.45
2023-02-11T00:34:59.457Z,51.28
2023-02-11T00:38:01.585Z,53.22
2023-02-11T00:41:04.235Z,56.53
2023-02-11T00:44:06.872Z,54.30
2023-02-11T00:47:09.306Z,55.15
2023-02-11T00:50:11.424Z,54.75
2023-02-11T00:53:13.912Z,55.92
2023-02-11T00:56:16.172Z,51.00
2023-02-11T00:59:18.621Z,52.28
2023-02-11T01:02:20.763Z,51.47
2023-02-11T01:05:23.244Z,49.72
2023-02-11T01:08:25.463Z,53.05
2023-02-11T01:11:27.872Z,52.35
2023-02-11T01:14:30.124Z,53.95
2023-02-11T01:17:33.077Z,48.45
2023-02-11T01:20:35.410Z,48.10
2023-02-11T01:23:37.985Z,54.58
2023-02-11T01:26:40.130Z,49.72
2023-02-11T01:29:42.581Z,51.83
2023-02-11T01:32:44.773Z,47.65
2023-02-11T01:35:47.634Z,44.53
2023-02-11T01:38:49.922Z,47.20
2023-02-11T01:41:54.742Z,48.70
2023-02-11T01:44:58.097Z,45.17
2023-02-11T01:48:02.444Z,45.85
2023-02-11T01:51:18.243Z,49.53
2023-02-11T01:54:43.924Z,50.30
2023-02-11T01:57:51.350Z,47.70
2023-02-11T02:00:55.014Z,50.53
2023-02-11T02:04:01.977Z,50.47
2023-02-11T02:07:11.120Z,51.08
2023-02-11T02:10:19.169Z,45.90
2023-02-11T02:13:23.147Z,48.22
2023-02-11T02:16:33.697Z,47.20
2023-02-11T02:20:21.708Z,45.97
2023-02-11T02:23:52.608Z,45.75
2023-02-11T02:27:12.823Z,45.05
2023-02-11T02:30:52.995Z,46.83
2023-02-11T02:34:36.530Z,46.60
2023-02-11T02:37:51.338Z,52.42
2023-02-11T02:40:59.365Z,49.58
2023-02-11T02:44:02.592Z,50.22
2023-02-11T02:47:04.817Z,46.85
2023-02-11T02:50:09.706Z,52.97
2023-02-11T02:53:32.388Z,47.03
2023-02-11T02:57:08.610Z,51.53
2023-02-11T03:00:42.210Z,52.60
2023-02-11T03:04:08.810Z,48.60
2023-02-11T03:07:27.665Z,51.17
2023-02-11T03:10:34.264Z,51.58
2023-02-11T03:13:39.297Z,44.88
2023-02-11T03:16:45.635Z,47.80
2023-02-11T03:19:51.733Z,48.15
2023-02-11T03:22:58.369Z,47.80
2023-02-11T03:26:08.421Z,51.70
2023-02-11T03:29:29.020Z,48.15
2023-02-11T03:32:36.804Z,51.13
2023-02-11T03:35:45.900Z,44.42
2023-02-11T03:38:52.352Z,45.17
2023-02-11T03:41:58.582Z,44.33
2023-02-11T03:45:09.200Z,46.37
2023-02-11T03:48:14.546Z,45.95
2023-02-11T03:51:17.426Z,43.55
2023-02-11T03:54:26.570Z,42.28
2023-02-11T03:57:28.792Z,45.45
2023-02-11T04:00:34.158Z,48.95
2023-02-11T04:03:36.696Z,45.00
2023-02-11T04:06:39.257Z,44.58
2023-02-11T04:09:41.772Z,45.42
2023-02-11T04:12:43.946Z,47.05
2023-02-11T04:15:48.801Z,42.33
2023-02-11T04:18:51.279Z,48.33
2023-02-11T04:21:53.752Z,42.47
2023-02-11T04:24:55.984Z,44.90
2023-02-11T04:27:58.456Z,48.15
2023-02-11T04:31:00.648Z,47.72
2023-02-11T04:34:03.140Z,47.55
2023-02-11T04:37:05.345Z,43.87
2023-02-11T04:40:08.509Z,49.83
2023-02-11T04:43:10.696Z,46.95
2023-02-11T04:46:13.295Z,48.38
2023-02-11T04:49:16.760Z,45.83
2023-02-11T04:52:19.298Z,51.95
2023-02-11T04:55:21.520Z,52.05
2023-02-11T04:58:24.354Z,47.95
2023-02-11T05:01:26.643Z,44.03
2023-02-11T05:04:29.168Z,43.28
2023-02-11T05:07:31.460Z,47.55
2023-02-11T05:10:34.458Z,45.12
2023-02-11T05:13:37.063Z,47.30
2023-02-11T05:16:39.611Z,46.30
2023-02-11T05:19:42.137Z,46.25
2023-02-11T05:22:44.585Z,49.83
2023-02-11T05:25:46.753Z,46.47
2023-02-11T05:28:49.189Z,42.08
2023-02-11T05:31:51.366Z,46.60
2023-02-11T05:34:53.822Z,47.08
2023-02-11T05:37:56.031Z,46.13
2023-02-11T05:40:58.548Z,41.90
2023-02-11T05:44:00.785Z,46.72
2023-02-11T05:47:03.395Z,42.03
2023-02-11T05:50:06.252Z,41.53
2023-02-11T05:53:08.718Z,53.45
2023-02-11T05:56:11.616Z,45.95
2023-02-11T05:59:14.883Z,44.72
2023-02-11T06:02:17.078Z,44.45
2023-02-11T06:05:19.968Z,43.17
2023-02-11T06:08:22.301Z,50.10
2023-02-11T06:11:24.793Z,53.40
2023-02-11T06:14:27.410Z,48.65
2023-02-11T06:17:33.714Z,48.70
2023-02-11T06:20:36.074Z,47.92
2023-02-11T06:23:39.179Z,50.03
2023-02-11T06:26:41.409Z,48.38
2023-02-11T06:29:43.860Z,46.47
2023-02-11T06:32:46.427Z,46.58
2023-02-11T06:35:49.637Z,46.97
2023-02-11T06:38:53.311Z,45.22
2023-02-11T06:41:55.715Z,43.92
2023-02-11T06:44:57.901Z,48.42
2023-02-11T06:48:00.360Z,46.58
2023-02-11T06:51:07.137Z,47.72
2023-02-11T06:54:11.243Z,44.55
2023-02-11T06:57:13.431Z,43.70
2023-02-11T07:00:16.381Z,42.88
2023-02-11T07:03:18.635Z,46.85
2023-02-11T07:06:24.722Z,48.72
2023-02-11T07:09:26.883Z,43.50
2023-02-11T07:12:29.518Z,51.70
2023-02-11T07:15:31.797Z,44.78
2023-02-11T07:18:34.467Z,46.25
2023-02-11T07:21:36.666Z,44.97
2023-02-11T07:24:39.175Z,44.70
2023-02-11T07:27:41.365Z,45.40
2023-02-11T07:30:43.831Z,44.60
2023-02-11T07:33:46.513Z,41.78
2023-02-11T07:36:49.298Z,41.00
2023-02-11T07:39:51.472Z,37.17
2023-02-11T07:42:53.891Z,39.08
2023-02-11T07:45:56.094Z,39.50
2023-02-11T07:48:58.502Z,37.70
2023-02-11T07:52:00.648Z,41.20
2023-02-11T07:55:04.883Z,38.78
2023-02-11T07:58:07.138Z,40.45
2023-02-11T08:01:18.653Z,35.97
2023-02-11T08:04:21.248Z,39.50
2023-02-11T08:07:23.403Z,41.33
2023-02-11T08:10:25.798Z,39.80
2023-02-11T08:13:27.980Z,39.50
2023-02-11T08:16:35.450Z,41.20
2023-02-11T08:19:38.853Z,39.20
2023-02-11T08:22:41.296Z,38.95
2023-02-11T08:25:43.478Z,41.97
2023-02-11T08:28:48.070Z,42.83
2023-02-11T08:31:50.288Z,37.65
2023-02-11T08:34:53.269Z,37.75
2023-02-11T08:37:55.496Z,40.22
2023-02-11T08:41:00.660Z,43.90
2023-02-11T08:44:03.036Z,42.08
2023-02-11T08:47:05.463Z,40.78
2023-02-11T08:50:08.043Z,39.22
2023-02-11T08:53:10.587Z,39.22
2023-02-11T08:56:14.430Z,37.15
2023-02-11T08:59:17.744Z,39.78
2023-02-11T09:02:20.020Z,35.90
2023-02-11T09:05:23.163Z,39.55
2023-02-11T09:08:25.282Z,38.97
2023-02-11T09:11:30.962Z,36.30
2023-02-11T09:14:33.254Z,41.30
2023-02-11T09:17:35.683Z,41.95
2023-02-11T09:20:37.807Z,38.80
2023-02-11T09:23:43.504Z,35.67
2023-02-11T09:26:45.667Z,39.53
2023-02-11T09:29:48.153Z,34.42
2023-02-11T09:32:50.279Z,38.90
2023-02-11T09:35:52.716Z,36.42
2023-02-11T09:38:55.379Z,37.78
2023-02-11T09:42:18.348Z,40.72
2023-02-11T09:45:29.522Z,43.85
2023-02-11T09:48:40.788Z,44.30
2023-02-11T09:51:49.989Z,41.83
2023-02-11T09:54:58.834Z,43.30
2023-02-11T09:58:05.127Z,52.70
2023-02-11T10:01:28.944Z,45.88
2023-02-11T10:05:13.358Z,47.30
2023-02-11T10:08:50.707Z,38.55
2023-02-11T10:12:04.482Z,44.50
2023-02-11T10:15:06.532Z,43.15
2023-02-11T10:18:17.958Z,45.72
2023-02-11T10:24:22.496Z,40.42
2023-02-11T10:27:30.723Z,42.08
2023-02-11T10:30:38.872Z,44.00
2023-02-11T10:33:58.242Z,44.92
2023-02-11T10:37:00.727Z,39.40
2023-02-11T10:40:03.268Z,38.58
2023-02-11T10:43:10.523Z,44.15
2023-02-11T10:46:19.460Z,42.75
2023-02-11T10:49:46.018Z,41.10
2023-02-11T10:52:48.637Z,39.63
2023-02-11T10:55:57.277Z,41.28
2023-02-11T10:59:06.012Z,44.75
2023-02-11T11:02:31.980Z,39.30
2023-02-11T11:05:47.117Z,37.33
2023-02-11T11:08:51.617Z,40.12
2023-02-11T11:11:53.923Z,39.92
2023-02-11T11:14:59.922Z,37.58
2023-02-11T11:18:28.113Z,38.95
2023-02-11T11:21:40.643Z,42.67
2023-02-11T11:24:46.685Z,44.25
2023-02-11T11:27:51.204Z,38.13
2023-02-11T11:30:55.892Z,43.55
2023-02-11T11:34:00.940Z,41.67
2023-02-11T11:37:22.056Z,36.95
2023-02-11T11:40:27.932Z,35.90
2023-02-11T11:43:30.221Z,35.20
2023-02-11T11:46:35.864Z,34.03
2023-02-11T11:49:40.894Z,35.88
2023-02-11T11:53:03.989Z,33.67
2023-02-11T11:56:13.184Z,30.95
2023-02-11T11:59:17.078Z,32.38
2023-02-11T12:02:50.627Z,32.75
2023-02-11T12:06:25.028Z,32.28
2023-02-11T12:09:51.751Z,31.60
2023-02-11T12:13:17.563Z,32.88
2023-02-11T12:16:25.312Z,30.37
2023-02-11T12:19:46.389Z,32.70
2023-02-11T12:23:28.989Z,29.23
2023-02-11T12:26:57.894Z,31.23
2023-02-11T12:30:18.342Z,32.25
2023-02-11T12:33:53.768Z,30.73
2023-02-11T12:37:27.170Z,29.73
2023-02-11T12:40:46.313Z,30.33
2023-02-11T12:43:49.772Z,31.55
2023-02-11T12:47:08.377Z,28.67
2023-02-11T12:50:25.382Z,31.83
2023-02-11T12:54:10.819Z,29.08
2023-02-11T12:57:26.557Z,29.58
2023-02-11T13:00:42.004Z,29.37
2023-02-11T13:03:54.241Z,30.00
2023-02-11T13:07:02.263Z,27.73
2023-02-11T13:10:07.611Z,30.15
2023-02-11T13:13:31.612Z,27.65
2023-02-11T13:16:42.682Z,26.42
2023-02-11T13:19:52.858Z,24.58
2023-02-11T13:23:22.823Z,25.08
2023-02-11T13:26:45.607Z,28.75
2023-02-11T13:30:25.440Z,22.42
2023-02-11T13:33:34.202Z,23.55
2023-02-11T13:36:36.400Z,23.48
2023-02-11T13:39:39.366Z,21.33
2023-02-11T13:42:52.237Z,25.10
2023-02-11T13:46:00.554Z,23.17
2023-02-11T13:49:02.833Z,25.58
2023-02-11T13:52:18.379Z,24.10
2023-02-11T13:55:23.811Z,25.37
2023-02-11T13:58:28.967Z,25.92
2023-02-11T14:01:39.421Z,24.80
2023-02-11T14:05:31.748Z,22.40
2023-02-11T14:08:52.433Z,24.77
2023-02-11T14:12:31.504Z,27.58
2023-02-11T14:15:40.489Z,22.77
2023-02-11T14:18:49.227Z,24.42
2023-02-11T14:21:51.412Z,26.20
2023-02-11T14:25:01.450Z,23.45
2023-02-11T14:28:17.348Z,24.70
2023-02-11T14:31:26.232Z,22.35
2023-02-11T14:34:51.718Z,24.08
2023-02-11T14:38:00.207Z,23.83
2023-02-11T14:41:25.399Z,27.45
2023-02-11T14:44:31.250Z,24.80
2023-02-11T14:47:46.758Z,25.33
2023-02-11T14:51:00.550Z,24.20
2023-02-11T14:54:24.893Z,23.52
2023-02-11T14:57:28.079Z,23.45
2023-02-11T15:00:30.503Z,24.75
2023-02-11T15:03:36.249Z,23.05
2023-02-11T15:06:49.723Z,25.23
2023-02-11T15:09:54.165Z,25.30
2023-02-11T15:12:57.471Z,24.60
2023-02-11T15:16:09.288Z,25.08
2023-02-11T15:19:28.397Z,26.95
2023-02-11T15:22:36.503Z,26.62
2023-02-11T15:25:51.173Z,26.00
2023-02-11T15:28:53.680Z,25.65
2023-02-11T15:32:23.152Z,29.67
2023-02-11T15:35:32.386Z,25.70
2023-02-11T15:38:34.574Z,25.12
2023-02-11T15:41:38.699Z,25.30
2023-02-11T15:44:41.344Z,27.70
2023-02-11T15:47:53.727Z,27.37
2023-02-11T15:51:00.206Z,30.42
2023-02-11T15:54:08.938Z,29.92
2023-02-11T15:57:11.733Z,30.20
2023-02-11T16:00:17.189Z,27.55
2023-02-11T16:03:25.349Z,27.85
2023-02-11T16:06:36.978Z,26.45
2023-02-11T16:09:39.819Z,25.95
2023-02-11T16:12:54.727Z,27.45
2023-02-11T16:16:02.452Z,25.73
2023-02-11T16:19:06.442Z,28.40
2023-02-11T16:22:14.879Z,30.23
2023-02-11T16:25:20.599Z,26.37
2023-02-11T16:28:23.102Z,29.45
2023-02-11T16:31:42.150Z,32.00
2023-02-11T16:34:44.573Z,32.55
2023-02-11T16:37:46.716Z,33.03
2023-02-11T16:40:50.043Z,30.00
2023-02-11T16:43:52.392Z,30.92
2023-02-11T16:46:58.445Z,28.58
2023-02-11T16:50:02.221Z,29.90
2023-02-11T16:53:06.436Z,34.90
2023-02-11T16:56:16.055Z,26.00
2023-02-11T16:59:18.553Z,30.05
2023-02-11T17:02:26.062Z,35.63
2023-02-11T17:05:28.475Z,31.50
2023-02-11T17:08:30.614Z,30.35
2023-02-11T17:11:33.068Z,29.70
2023-02-11T17:14:35.239Z,28.55
2023-02-11T17:17:37.762Z,28.95
2023-02-11T17:20:40.474Z,27.25
2023-02-11T17:23:43.112Z,27.77
2023-02-11T17:26:46.270Z,33.05
2023-02-11T17:29:48.792Z,29.60
2023-02-11T17:32:51.007Z,30.77
2023-02-11T17:35:53.933Z,28.95
2023-02-11T17:38:56.525Z,27.83
2023-02-11T17:41:58.979Z,30.05
2023-02-11T17:45:01.161Z,28.33
2023-02-11T17:48:03.828Z,32.03
2023-02-11T17:51:20.470Z,29.90
2023-02-11T17:54:23.029Z,28.15
2023-02-11T17:57:25.158Z,28.70
2023-02-11T18:00:28.363Z,31.37
2023-02-11T18:03:30.892Z,34.50
2023-02-11T18:06:36.191Z,31.58
2023-02-11T18:09:40.445Z,31.77
2023-02-11T18:12:42.836Z,31.42
2023-02-11T18:15:45.247Z,32.63
2023-02-11T18:18:47.611Z,30.85
2023-02-11T18:21:50.918Z,31.67
2023-02-11T18:24:54.665Z,30.35
2023-02-11T18:27:57.089Z,34.10
2023-02-11T18:31:00.179Z,32.67
2023-02-11T18:34:05.759Z,33.28
2023-02-11T18:37:08.275Z,31.45
2023-02-11T18:40:11.491Z,30.42
2023-02-11T18:43:14.351Z,32.15
2023-02-11T18:46:17.268Z,31.52
2023-02-11T18:49:20.180Z,33.33
2023-02-11T18:52:22.696Z,29.83
2023-02-11T18:55:25.907Z,33.38
2023-02-11T18:58:28.385Z,32.40
2023-02-11T19:01:33.033Z,31.92
2023-02-11T19:04:37.324Z,32.90
2023-02-11T19:07:39.713Z,30.85
2023-02-11T19:10:44.451Z,32.95
2023-02-11T19:13:47.837Z,34.40
2023-02-11T19:16:52.795Z,34.58
2023-02-11T19:19:55.014Z,35.28
2023-02-11T19:22:57.436Z,38.25
2023-02-11T19:25:59.631Z,36.75
2023-02-11T19:29:02.285Z,36.60
2023-02-11T19:32:08.579Z,34.67
2023-02-11T19:35:11.064Z,36.28
2023-02-11T19:38:15.672Z,35.00
2023-02-11T19:41:23.055Z,32.33
2023-02-11T19:44:25.252Z,31.55
2023-02-11T19:47:27.892Z,41.08
2023-02-11T19:50:30.219Z,36.30
2023-02-11T19:53:32.595Z,34.10
2023-02-11T19:59:12.028Z,32.53
2023-02-11T20:02:14.598Z,34.42
2023-02-11T20:05:17.091Z,34.92
2023-02-11T20:08:19.203Z,35.53
2023-02-11T20:11:21.594Z,36.67
2023-02-11T20:14:26.159Z,34.60
2023-02-11T20:17:29.985Z,32.08
2023-02-11T20:20:32.214Z,37.38
2023-02-11T20:23:35.717Z,33.78
2023-02-11T20:26:40.824Z,35.42
2023-02-11T20:29:43.208Z,32.00
2023-02-11T20:32:45.409Z,29.90
2023-02-11T20:35:56.854Z,31.05
2023-02-11T20:42:01.965Z,31.02
2023-02-11T20:45:04.316Z,33.42
2023-02-11T20:48:06.752Z,29.05
2023-02-11T20:51:11.650Z,24.48
2023-02-11T20:54:17.634Z,28.35
2023-02-11T20:57:19.810Z,22.75
2023-02-11T21:00:22.261Z,23.12
2023-02-11T21:03:24.516Z,23.58
2023-02-11T21:06:31.207Z,22.83
2023-02-11T21:09:33.622Z,23.87
2023-02-11T21:12:36.105Z,22.20
2023-02-11T21:15:38.259Z,26.67
2023-02-11T21:18:40.688Z,23.33
2023-02-11T21:21:43.113Z,22.98
2023-02-11T21:24:45.604Z,24.92
2023-02-11T21:27:47.722Z,23.95
2023-02-11T21:30:50.579Z,27.13
2023-02-11T21:33:54.986Z,26.77
2023-02-11T21:36:57.406Z,26.60
2023-02-11T21:39:59.587Z,27.37
2023-02-11T21:43:01.988Z,22.37
2023-02-11T21:46:13.105Z,30.33
2023-02-11T21:49:15.581Z,21.35
2023-02-11T21:52:17.680Z,23.17
2023-02-11T21:55:20.150Z,23.98
2023-02-11T21:58:22.776Z,24.08
2023-02-11T22:01:27.765Z,20.98
2023-02-11T22:04:30.825Z,23.65
2023-02-11T22:07:35.468Z,21.30
2023-02-11T22:10:38.912Z,29.08
2023-02-11T22:13:41.415Z,23.30
2023-02-11T22:16:45.265Z,24.08
2023-02-11T22:19:47.397Z,24.30
2023-02-11T22:22:50.727Z,25.12
2023-02-11T22:25:53.102Z,24.73
2023-02-11T22:28:56.370Z,31.27
2023-02-11T22:31:58.677Z,23.83
2023-02-11T22:35:01.202Z,21.95
2023-02-11T22:38:04.381Z,24.58
2023-02-11T22:41:10.216Z,27.42
2023-02-11T22:44:13.283Z,23.10
2023-02-11T22:47:15.671Z,27.02
2023-02-11T22:50:17.853Z,23.67
2023-02-11T22:53:20.313Z,21.02
2023-02-11T22:56:23.735Z,22.67
2023-02-11T22:59:26.191Z,22.17
2023-02-11T23:02:28.376Z,23.45
2023-02-11T23:05:30.854Z,22.10
2023-02-11T23:08:33.670Z,23.67
2023-02-11T23:11:36.443Z,27.40
2023-02-11T23:14:38.540Z,22.55
2023-02-11T23:17:40.937Z,25.15
2023-02-11T23:20:43.893Z,25.45
2023-02-11T23:23:46.657Z,22.08
2023-02-11T23:26:49.146Z,23.23
2023-02-11T23:29:51.531Z,22.65
2023-02-11T23:32:53.731Z,21.02
2023-02-11T23:35:56.363Z,25.42
2023-02-11T23:38:58.710Z,21.00
2023-02-11T23:42:01.212Z,23.70
2023-02-11T23:45:03.520Z,24.27
2023-02-11T23:48:05.982Z,23.05
2023-02-11T23:51:09.783Z,21.92
2023-02-11T23:54:13.822Z,20.42
2023-02-11T23:57:16.004Z,21.73
